sensor_id;sensor_type;location;lat;lon;timestamp;P1;durP1;ratioP1;P2;durP2;ratioP2
2538;SDS011;1280;49.760;9.664;2024-03-25T00:01:08;7.80;;;3.77;;
2538;SDS011;1280;49.760;9.664;2024-03-25T00:03:40;7.60;;;3.40;;
2538;SDS011;1280;49.760;9.664;2024-03-25T00:06:24;8.83;;;3.20;;
2538;SDS011;1280;49.760;9.664;2024-03-25T00:09:00;6.30;;;3.20;;
2538;SDS011;1280;49.760;9.664;2024-03-25T00:11:32;10.23;;;3.93;;
2538;SDS011;1280;49.760;9.664;2024-03-25T00:14:04;7.53;;;3.37;;
2538;SDS011;1280;49.760;9.664;2024-03-25T00:16:32;6.90;;;2.67;;
2538;SDS011;1280;49.760;9.664;2024-03-25T00:19:10;9.60;;;3.50;;
2538;SDS011;1280;49.760;9.664;2024-03-25T00:21:38;7.03;;;3.20;;
2538;SDS011;1280;49.760;9.664;2024-03-25T00:24:08;8.80;;;3.00;;
2538;SDS011;1280;49.760;9.664;2024-03-25T00:26:38;10.30;;;2.80;;
2538;SDS011;1280;49.760;9.664;2024-03-25T00:29:08;10.10;;;3.07;;
2538;SDS011;1280;49.760;9.664;2024-03-25T00:31:38;7.50;;;2.70;;
2538;SDS011;1280;49.760;9.664;2024-03-25T00:34:13;8.10;;;2.70;;
2538;SDS011;1280;49.760;9.664;2024-03-25T00:36:43;9.70;;;3.40;;
2538;SDS011;1280;49.760;9.664;2024-03-25T00:39:13;5.97;;;2.20;;
2538;SDS011;1280;49.760;9.664;2024-03-25T00:41:43;5.93;;;2.00;;
2538;SDS011;1280;49.760;9.664;2024-03-25T00:44:13;6.40;;;2.70;;
2538;SDS011;1280;49.760;9.664;2024-03-25T00:46:43;6.33;;;2.57;;
2538;SDS011;1280;49.760;9.664;2024-03-25T00:49:19;8.60;;;3.10;;
2538;SDS011;1280;49.760;9.664;2024-03-25T00:51:49;12.20;;;3.50;;
2538;SDS011;1280;49.760;9.664;2024-03-25T00:54:20;5.47;;;2.50;;
2538;SDS011;1280;49.760;9.664;2024-03-25T00:56:50;7.20;;;3.20;;
2538;SDS011;1280;49.760;9.664;2024-03-25T00:59:22;7.33;;;3.23;;
2538;SDS011;1280;49.760;9.664;2024-03-25T01:01:51;6.90;;;3.13;;
2538;SDS011;1280;49.760;9.664;2024-03-25T01:04:21;8.23;;;3.20;;
2538;SDS011;1280;49.760;9.664;2024-03-25T01:06:51;8.50;;;2.83;;
2538;SDS011;1280;49.760;9.664;2024-03-25T01:09:21;7.40;;;3.50;;
2538;SDS011;1280;49.760;9.664;2024-03-25T01:11:54;6.83;;;2.87;;
2538;SDS011;1280;49.760;9.664;2024-03-25T01:14:21;7.37;;;3.60;;
2538;SDS011;1280;49.760;9.664;2024-03-25T01:16:50;11.67;;;3.73;;
2538;SDS011;1280;49.760;9.664;2024-03-25T01:19:17;9.83;;;3.93;;
2538;SDS011;1280;49.760;9.664;2024-03-25T01:21:46;7.87;;;3.00;;
2538;SDS011;1280;49.760;9.664;2024-03-25T01:24:33;7.57;;;3.00;;
2538;SDS011;1280;49.760;9.664;2024-03-25T01:27:05;11.57;;;3.70;;
2538;SDS011;1280;49.760;9.664;2024-03-25T01:29:32;7.23;;;3.13;;
2538;SDS011;1280;49.760;9.664;2024-03-25T01:32:06;6.70;;;3.10;;
2538;SDS011;1280;49.760;9.664;2024-03-25T01:34:37;9.27;;;3.23;;
2538;SDS011;1280;49.760;9.664;2024-03-25T01:37:06;8.97;;;3.30;;
2538;SDS011;1280;49.760;9.664;2024-03-25T01:39:33;8.00;;;3.07;;
2538;SDS011;1280;49.760;9.664;2024-03-25T01:42:11;6.23;;;3.30;;
2538;SDS011;1280;49.760;9.664;2024-03-25T01:44:40;8.70;;;3.37;;
2538;SDS011;1280;49.760;9.664;2024-03-25T01:47:15;8.63;;;3.03;;
2538;SDS011;1280;49.760;9.664;2024-03-25T01:49:48;7.20;;;3.80;;
2538;SDS011;1280;49.760;9.664;2024-03-25T01:52:21;10.67;;;4.50;;
2538;SDS011;1280;49.760;9.664;2024-03-25T01:54:48;7.50;;;4.10;;
2538;SDS011;1280;49.760;9.664;2024-03-25T01:57:32;10.30;;;4.70;;
2538;SDS011;1280;49.760;9.664;2024-03-25T02:00:06;8.00;;;3.93;;
2538;SDS011;1280;49.760;9.664;2024-03-25T02:02:34;11.90;;;4.13;;
2538;SDS011;1280;49.760;9.664;2024-03-25T02:05:07;8.90;;;5.00;;
2538;SDS011;1280;49.760;9.664;2024-03-25T02:07:36;11.60;;;4.90;;
2538;SDS011;1280;49.760;9.664;2024-03-25T02:10:11;7.53;;;4.27;;
2538;SDS011;1280;49.760;9.664;2024-03-25T02:12:48;6.53;;;3.93;;
2538;SDS011;1280;49.760;9.664;2024-03-25T02:15:20;8.20;;;3.87;;
2538;SDS011;1280;49.760;9.664;2024-03-25T02:17:48;7.90;;;4.13;;
2538;SDS011;1280;49.760;9.664;2024-03-25T02:20:19;9.30;;;4.33;;
2538;SDS011;1280;49.760;9.664;2024-03-25T02:22:48;8.57;;;4.80;;
2538;SDS011;1280;49.760;9.664;2024-03-25T02:25:16;10.97;;;5.03;;
2538;SDS011;1280;49.760;9.664;2024-03-25T02:27:52;8.73;;;4.40;;
2538;SDS011;1280;49.760;9.664;2024-03-25T02:30:22;11.60;;;4.37;;
2538;SDS011;1280;49.760;9.664;2024-03-25T02:32:49;7.90;;;4.70;;
2538;SDS011;1280;49.760;9.664;2024-03-25T02:35:25;8.13;;;3.60;;
2538;SDS011;1280;49.760;9.664;2024-03-25T02:37:57;9.17;;;4.10;;
2538;SDS011;1280;49.760;9.664;2024-03-25T02:40:42;9.90;;;4.43;;
2538;SDS011;1280;49.760;9.664;2024-03-25T02:43:15;9.03;;;4.43;;
2538;SDS011;1280;49.760;9.664;2024-03-25T02:45:48;9.50;;;4.50;;
2538;SDS011;1280;49.760;9.664;2024-03-25T02:48:24;9.33;;;4.30;;
2538;SDS011;1280;49.760;9.664;2024-03-25T02:50:53;10.20;;;4.10;;
2538;SDS011;1280;49.760;9.664;2024-03-25T02:53:23;13.70;;;4.90;;
2538;SDS011;1280;49.760;9.664;2024-03-25T02:55:52;10.60;;;4.00;;
2538;SDS011;1280;49.760;9.664;2024-03-25T02:58:39;7.87;;;4.20;;
2538;SDS011;1280;49.760;9.664;2024-03-25T03:01:07;8.43;;;3.77;;
2538;SDS011;1280;49.760;9.664;2024-03-25T03:03:41;9.97;;;4.30;;
2538;SDS011;1280;49.760;9.664;2024-03-25T03:06:09;9.83;;;3.70;;
2538;SDS011;1280;49.760;9.664;2024-03-25T03:08:45;8.17;;;4.00;;
2538;SDS011;1280;49.760;9.664;2024-03-25T03:11:11;10.57;;;4.10;;
2538;SDS011;1280;49.760;9.664;2024-03-25T03:13:47;8.13;;;3.73;;
2538;SDS011;1280;49.760;9.664;2024-03-25T03:16:16;7.73;;;3.30;;
2538;SDS011;1280;49.760;9.664;2024-03-25T03:18:43;8.87;;;3.50;;
2538;SDS011;1280;49.760;9.664;2024-03-25T03:21:11;7.27;;;3.33;;
2538;SDS011;1280;49.760;9.664;2024-03-25T03:23:45;10.57;;;3.87;;
2538;SDS011;1280;49.760;9.664;2024-03-25T03:26:16;5.70;;;2.50;;
2538;SDS011;1280;49.760;9.664;2024-03-25T03:29:00;9.30;;;3.50;;
2538;SDS011;1280;49.760;9.664;2024-03-25T03:31:31;7.50;;;3.27;;
2538;SDS011;1280;49.760;9.664;2024-03-25T03:34:04;9.83;;;4.10;;
2538;SDS011;1280;49.760;9.664;2024-03-25T03:36:31;6.67;;;2.87;;
2538;SDS011;1280;49.760;9.664;2024-03-25T03:39:00;7.90;;;3.40;;
2538;SDS011;1280;49.760;9.664;2024-03-25T03:41:29;10.60;;;3.40;;
2538;SDS011;1280;49.760;9.664;2024-03-25T03:46:49;9.00;;;3.33;;
2538;SDS011;1280;49.760;9.664;2024-03-25T03:49:31;9.13;;;3.40;;
2538;SDS011;1280;49.760;9.664;2024-03-25T03:52:00;8.80;;;3.60;;
2538;SDS011;1280;49.760;9.664;2024-03-25T03:54:31;9.73;;;3.30;;
2538;SDS011;1280;49.760;9.664;2024-03-25T03:57:02;11.53;;;3.90;;
2538;SDS011;1280;49.760;9.664;2024-03-25T03:59:32;11.10;;;3.70;;
2538;SDS011;1280;49.760;9.664;2024-03-25T04:02:06;8.70;;;4.13;;
2538;SDS011;1280;49.760;9.664;2024-03-25T04:04:34;13.87;;;4.37;;
2538;SDS011;1280;49.760;9.664;2024-03-25T04:07:09;12.77;;;3.73;;
2538;SDS011;1280;49.760;9.664;2024-03-25T04:09:36;9.87;;;3.43;;
2538;SDS011;1280;49.760;9.664;2024-03-25T04:12:07;9.03;;;4.07;;
2538;SDS011;1280;49.760;9.664;2024-03-25T04:14:35;10.33;;;3.47;;
2538;SDS011;1280;49.760;9.664;2024-03-25T04:17:10;8.50;;;4.07;;
2538;SDS011;1280;49.760;9.664;2024-03-25T04:19:40;10.47;;;3.87;;
2538;SDS011;1280;49.760;9.664;2024-03-25T04:22:10;9.63;;;3.50;;
2538;SDS011;1280;49.760;9.664;2024-03-25T04:24:37;12.60;;;4.13;;
2538;SDS011;1280;49.760;9.664;2024-03-25T04:27:08;12.17;;;4.00;;
2538;SDS011;1280;49.760;9.664;2024-03-25T04:29:37;12.87;;;4.23;;
2538;SDS011;1280;49.760;9.664;2024-03-25T04:32:09;7.70;;;3.53;;
2538;SDS011;1280;49.760;9.664;2024-03-25T04:34:38;12.53;;;3.87;;
2538;SDS011;1280;49.760;9.664;2024-03-25T04:37:10;9.47;;;3.13;;
2538;SDS011;1280;49.760;9.664;2024-03-25T04:39:38;7.23;;;3.80;;
2538;SDS011;1280;49.760;9.664;2024-03-25T04:42:18;11.60;;;3.33;;
2538;SDS011;1280;49.760;9.664;2024-03-25T04:44:53;8.13;;;3.50;;
2538;SDS011;1280;49.760;9.664;2024-03-25T04:47:20;11.30;;;2.63;;
2538;SDS011;1280;49.760;9.664;2024-03-25T04:49:46;8.83;;;3.47;;
2538;SDS011;1280;49.760;9.664;2024-03-25T04:52:15;7.80;;;3.10;;
2538;SDS011;1280;49.760;9.664;2024-03-25T04:54:43;9.00;;;3.10;;
2538;SDS011;1280;49.760;9.664;2024-03-25T04:57:17;8.70;;;3.07;;
2538;SDS011;1280;49.760;9.664;2024-03-25T05:00:04;13.10;;;3.03;;
2538;SDS011;1280;49.760;9.664;2024-03-25T05:02:34;12.63;;;3.10;;
2538;SDS011;1280;49.760;9.664;2024-03-25T05:05:02;10.00;;;3.23;;
2538;SDS011;1280;49.760;9.664;2024-03-25T05:07:36;8.00;;;2.80;;
2538;SDS011;1280;49.760;9.664;2024-03-25T05:10:15;9.93;;;2.90;;
2538;SDS011;1280;49.760;9.664;2024-03-25T05:12:44;13.70;;;3.63;;
2538;SDS011;1280;49.760;9.664;2024-03-25T05:15:16;7.33;;;3.10;;
2538;SDS011;1280;49.760;9.664;2024-03-25T05:17:46;9.67;;;3.27;;
2538;SDS011;1280;49.760;9.664;2024-03-25T05:20:15;7.50;;;2.80;;
2538;SDS011;1280;49.760;9.664;2024-03-25T05:22:43;7.07;;;2.90;;
2538;SDS011;1280;49.760;9.664;2024-03-25T05:25:11;7.13;;;2.73;;
2538;SDS011;1280;49.760;9.664;2024-03-25T05:27:42;14.77;;;3.60;;
2538;SDS011;1280;49.760;9.664;2024-03-25T05:30:12;9.93;;;3.73;;
2538;SDS011;1280;49.760;9.664;2024-03-25T05:32:44;7.83;;;2.67;;
2538;SDS011;1280;49.760;9.664;2024-03-25T05:35:14;8.60;;;3.20;;
2538;SDS011;1280;49.760;9.664;2024-03-25T05:37:46;9.77;;;3.40;;
2538;SDS011;1280;49.760;9.664;2024-03-25T05:40:17;13.67;;;3.10;;
2538;SDS011;1280;49.760;9.664;2024-03-25T05:42:44;11.67;;;3.43;;
2538;SDS011;1280;49.760;9.664;2024-03-25T05:45:12;8.17;;;2.80;;
2538;SDS011;1280;49.760;9.664;2024-03-25T05:47:41;11.90;;;3.50;;
2538;SDS011;1280;49.760;9.664;2024-03-25T05:50:10;7.10;;;3.03;;
2538;SDS011;1280;49.760;9.664;2024-03-25T05:52:41;9.70;;;3.47;;
2538;SDS011;1280;49.760;9.664;2024-03-25T05:55:13;7.47;;;3.40;;
2538;SDS011;1280;49.760;9.664;2024-03-25T05:57:43;10.17;;;3.60;;
2538;SDS011;1280;49.760;9.664;2024-03-25T06:00:13;7.40;;;3.10;;
2538;SDS011;1280;49.760;9.664;2024-03-25T06:02:45;10.63;;;3.20;;
2538;SDS011;1280;49.760;9.664;2024-03-25T06:05:15;8.03;;;3.30;;
2538;SDS011;1280;49.760;9.664;2024-03-25T06:07:46;6.80;;;3.20;;
2538;SDS011;1280;49.760;9.664;2024-03-25T06:10:14;8.90;;;3.17;;
2538;SDS011;1280;49.760;9.664;2024-03-25T06:12:42;14.60;;;4.07;;
2538;SDS011;1280;49.760;9.664;2024-03-25T06:15:13;10.20;;;3.60;;
2538;SDS011;1280;49.760;9.664;2024-03-25T06:17:43;8.77;;;3.43;;
2538;SDS011;1280;49.760;9.664;2024-03-25T06:20:13;12.73;;;3.80;;
2538;SDS011;1280;49.760;9.664;2024-03-25T06:22:42;6.77;;;3.80;;
2538;SDS011;1280;49.760;9.664;2024-03-25T06:25:09;7.60;;;3.50;;
2538;SDS011;1280;49.760;9.664;2024-03-25T06:27:45;10.00;;;4.10;;
2538;SDS011;1280;49.760;9.664;2024-03-25T06:30:16;6.70;;;3.67;;
2538;SDS011;1280;49.760;9.664;2024-03-25T06:33:14;10.13;;;4.57;;
2538;SDS011;1280;49.760;9.664;2024-03-25T06:36:03;10.73;;;4.67;;
2538;SDS011;1280;49.760;9.664;2024-03-25T06:38:34;12.30;;;4.30;;
2538;SDS011;1280;49.760;9.664;2024-03-25T06:41:01;13.50;;;4.77;;
2538;SDS011;1280;49.760;9.664;2024-03-25T06:43:34;12.67;;;4.87;;
2538;SDS011;1280;49.760;9.664;2024-03-25T06:46:03;9.63;;;3.97;;
2538;SDS011;1280;49.760;9.664;2024-03-25T06:48:38;11.83;;;4.57;;
2538;SDS011;1280;49.760;9.664;2024-03-25T06:51:06;11.93;;;4.40;;
2538;SDS011;1280;49.760;9.664;2024-03-25T06:53:36;8.20;;;3.23;;
2538;SDS011;1280;49.760;9.664;2024-03-25T06:56:05;11.67;;;4.90;;
2538;SDS011;1280;49.760;9.664;2024-03-25T06:58:39;9.17;;;4.50;;
2538;SDS011;1280;49.760;9.664;2024-03-25T07:01:07;13.80;;;4.30;;
2538;SDS011;1280;49.760;9.664;2024-03-25T07:03:40;12.63;;;5.13;;
2538;SDS011;1280;49.760;9.664;2024-03-25T07:06:07;8.50;;;4.70;;
2538;SDS011;1280;49.760;9.664;2024-03-25T07:08:35;10.70;;;4.40;;
2538;SDS011;1280;49.760;9.664;2024-03-25T07:11:22;16.63;;;5.83;;
2538;SDS011;1280;49.760;9.664;2024-03-25T07:13:53;9.27;;;4.50;;
2538;SDS011;1280;49.760;9.664;2024-03-25T07:16:21;13.53;;;5.40;;
2538;SDS011;1280;49.760;9.664;2024-03-25T07:19:06;10.80;;;4.77;;
2538;SDS011;1280;49.760;9.664;2024-03-25T07:21:37;14.20;;;4.60;;
2538;SDS011;1280;49.760;9.664;2024-03-25T07:24:07;9.60;;;4.67;;
2538;SDS011;1280;49.760;9.664;2024-03-25T07:26:41;13.60;;;4.83;;
2538;SDS011;1280;49.760;9.664;2024-03-25T07:29:09;10.27;;;5.00;;
2538;SDS011;1280;49.760;9.664;2024-03-25T07:31:36;11.83;;;4.17;;
2538;SDS011;1280;49.760;9.664;2024-03-25T07:34:08;14.83;;;5.03;;
2538;SDS011;1280;49.760;9.664;2024-03-25T07:36:39;11.07;;;3.97;;
2538;SDS011;1280;49.760;9.664;2024-03-25T07:39:07;9.93;;;4.37;;
2538;SDS011;1280;49.760;9.664;2024-03-25T07:41:34;14.40;;;4.10;;
2538;SDS011;1280;49.760;9.664;2024-03-25T07:44:03;10.20;;;5.10;;
2538;SDS011;1280;49.760;9.664;2024-03-25T07:46:30;11.27;;;4.57;;
2538;SDS011;1280;49.760;9.664;2024-03-25T07:48:59;9.87;;;4.93;;
2538;SDS011;1280;49.760;9.664;2024-03-25T07:51:32;11.13;;;4.37;;
2538;SDS011;1280;49.760;9.664;2024-03-25T07:54:00;14.67;;;4.53;;
2538;SDS011;1280;49.760;9.664;2024-03-25T07:56:27;15.50;;;4.70;;
2538;SDS011;1280;49.760;9.664;2024-03-25T07:58:58;13.13;;;4.23;;
2538;SDS011;1280;49.760;9.664;2024-03-25T08:01:26;8.77;;;3.50;;
2538;SDS011;1280;49.760;9.664;2024-03-25T08:03:56;10.17;;;3.30;;
2538;SDS011;1280;49.760;9.664;2024-03-25T08:06:23;11.53;;;3.43;;
2538;SDS011;1280;49.760;9.664;2024-03-25T08:08:53;10.40;;;3.77;;
2538;SDS011;1280;49.760;9.664;2024-03-25T08:11:20;10.37;;;3.70;;
2538;SDS011;1280;49.760;9.664;2024-03-25T08:13:48;13.63;;;3.70;;
2538;SDS011;1280;49.760;9.664;2024-03-25T08:16:18;10.70;;;3.73;;
2538;SDS011;1280;49.760;9.664;2024-03-25T08:18:47;8.87;;;3.10;;
2538;SDS011;1280;49.760;9.664;2024-03-25T08:21:18;11.37;;;3.13;;
2538;SDS011;1280;49.760;9.664;2024-03-25T08:23:48;9.90;;;3.47;;
2538;SDS011;1280;49.760;9.664;2024-03-25T08:26:29;12.13;;;3.70;;
2538;SDS011;1280;49.760;9.664;2024-03-25T08:28:55;11.80;;;3.53;;
2538;SDS011;1280;49.760;9.664;2024-03-25T08:31:25;13.30;;;4.10;;
2538;SDS011;1280;49.760;9.664;2024-03-25T08:33:52;10.23;;;3.50;;
2538;SDS011;1280;49.760;9.664;2024-03-25T08:36:19;10.40;;;3.37;;
2538;SDS011;1280;49.760;9.664;2024-03-25T08:38:58;12.67;;;3.43;;
2538;SDS011;1280;49.760;9.664;2024-03-25T08:41:30;14.80;;;4.50;;
2538;SDS011;1280;49.760;9.664;2024-03-25T08:44:06;15.07;;;3.70;;
2538;SDS011;1280;49.760;9.664;2024-03-25T08:46:36;10.23;;;2.93;;
2538;SDS011;1280;49.760;9.664;2024-03-25T08:49:05;11.50;;;3.13;;
2538;SDS011;1280;49.760;9.664;2024-03-25T08:51:37;13.40;;;3.53;;
2538;SDS011;1280;49.760;9.664;2024-03-25T08:54:07;9.37;;;2.90;;
2538;SDS011;1280;49.760;9.664;2024-03-25T08:56:42;9.37;;;2.90;;
2538;SDS011;1280;49.760;9.664;2024-03-25T08:59:10;9.93;;;3.43;;
2538;SDS011;1280;49.760;9.664;2024-03-25T09:01:41;9.87;;;3.10;;
2538;SDS011;1280;49.760;9.664;2024-03-25T09:04:12;10.63;;;2.93;;
2538;SDS011;1280;49.760;9.664;2024-03-25T09:07:01;9.87;;;3.40;;
2538;SDS011;1280;49.760;9.664;2024-03-25T09:09:28;8.70;;;2.70;;
2538;SDS011;1280;49.760;9.664;2024-03-25T09:12:20;9.10;;;3.17;;
2538;SDS011;1280;49.760;9.664;2024-03-25T09:14:47;9.00;;;2.77;;
2538;SDS011;1280;49.760;9.664;2024-03-25T09:17:16;10.60;;;2.80;;
2538;SDS011;1280;49.760;9.664;2024-03-25T09:19:43;10.50;;;2.73;;
2538;SDS011;1280;49.760;9.664;2024-03-25T09:22:10;7.20;;;2.40;;
2538;SDS011;1280;49.760;9.664;2024-03-25T09:24:38;13.03;;;2.67;;
2538;SDS011;1280;49.760;9.664;2024-03-25T09:27:05;6.00;;;2.47;;
2538;SDS011;1280;49.760;9.664;2024-03-25T09:29:42;7.13;;;2.60;;
2538;SDS011;1280;49.760;9.664;2024-03-25T09:32:09;7.87;;;2.50;;
2538;SDS011;1280;49.760;9.664;2024-03-25T09:34:37;9.60;;;2.40;;
2538;SDS011;1280;49.760;9.664;2024-03-25T09:37:08;7.33;;;2.63;;
2538;SDS011;1280;49.760;9.664;2024-03-25T09:39:35;8.40;;;3.10;;
2538;SDS011;1280;49.760;9.664;2024-03-25T09:42:02;9.90;;;2.93;;
2538;SDS011;1280;49.760;9.664;2024-03-25T09:44:34;9.47;;;2.60;;
2538;SDS011;1280;49.760;9.664;2024-03-25T09:47:14;6.57;;;2.53;;
2538;SDS011;1280;49.760;9.664;2024-03-25T09:49:41;7.07;;;2.77;;
2538;SDS011;1280;49.760;9.664;2024-03-25T09:52:12;8.77;;;2.50;;
2538;SDS011;1280;49.760;9.664;2024-03-25T09:54:40;8.87;;;2.27;;
2538;SDS011;1280;49.760;9.664;2024-03-25T09:57:08;8.23;;;2.60;;
2538;SDS011;1280;49.760;9.664;2024-03-25T09:59:38;8.37;;;2.63;;
2538;SDS011;1280;49.760;9.664;2024-03-25T10:02:09;15.37;;;3.47;;
2538;SDS011;1280;49.760;9.664;2024-03-25T10:04:38;8.20;;;2.60;;
2538;SDS011;1280;49.760;9.664;2024-03-25T10:07:12;6.93;;;2.73;;
2538;SDS011;1280;49.760;9.664;2024-03-25T10:09:52;7.03;;;2.40;;
2538;SDS011;1280;49.760;9.664;2024-03-25T10:12:20;11.60;;;2.90;;
2538;SDS011;1280;49.760;9.664;2024-03-25T10:14:53;11.87;;;2.50;;
2538;SDS011;1280;49.760;9.664;2024-03-25T10:17:36;8.13;;;2.23;;
2538;SDS011;1280;49.760;9.664;2024-03-25T10:20:08;9.70;;;2.73;;
2538;SDS011;1280;49.760;9.664;2024-03-25T10:22:45;7.57;;;2.60;;
2538;SDS011;1280;49.760;9.664;2024-03-25T10:25:20;7.00;;;2.30;;
2538;SDS011;1280;49.760;9.664;2024-03-25T10:27:53;8.90;;;2.30;;
2538;SDS011;1280;49.760;9.664;2024-03-25T10:30:20;13.10;;;3.10;;
2538;SDS011;1280;49.760;9.664;2024-03-25T10:32:58;8.30;;;2.40;;
2538;SDS011;1280;49.760;9.664;2024-03-25T10:35:25;7.17;;;3.10;;
2538;SDS011;1280;49.760;9.664;2024-03-25T10:37:53;7.97;;;2.50;;
2538;SDS011;1280;49.760;9.664;2024-03-25T10:40:22;6.70;;;2.53;;
2538;SDS011;1280;49.760;9.664;2024-03-25T10:42:52;11.10;;;3.03;;
2538;SDS011;1280;49.760;9.664;2024-03-25T10:45:25;8.97;;;2.00;;
2538;SDS011;1280;49.760;9.664;2024-03-25T10:47:52;7.20;;;2.40;;
2538;SDS011;1280;49.760;9.664;2024-03-25T10:50:20;5.20;;;2.10;;
2538;SDS011;1280;49.760;9.664;2024-03-25T10:52:51;8.80;;;2.47;;
2538;SDS011;1280;49.760;9.664;2024-03-25T10:55:19;8.27;;;2.43;;
2538;SDS011;1280;49.760;9.664;2024-03-25T10:57:46;6.87;;;1.97;;
2538;SDS011;1280;49.760;9.664;2024-03-25T11:00:14;8.33;;;2.80;;
2538;SDS011;1280;49.760;9.664;2024-03-25T11:02:42;8.87;;;2.90;;
2538;SDS011;1280;49.760;9.664;2024-03-25T11:05:11;6.93;;;2.73;;
2538;SDS011;1280;49.760;9.664;2024-03-25T11:07:42;6.93;;;2.50;;
2538;SDS011;1280;49.760;9.664;2024-03-25T11:10:11;9.90;;;2.23;;
2538;SDS011;1280;49.760;9.664;2024-03-25T11:12:43;7.30;;;2.30;;
2538;SDS011;1280;49.760;9.664;2024-03-25T11:15:16;9.93;;;2.70;;
2538;SDS011;1280;49.760;9.664;2024-03-25T11:17:48;12.80;;;1.97;;
2538;SDS011;1280;49.760;9.664;2024-03-25T11:20:16;7.60;;;2.33;;
2538;SDS011;1280;49.760;9.664;2024-03-25T11:22:50;7.30;;;2.10;;
2538;SDS011;1280;49.760;9.664;2024-03-25T11:25:22;10.80;;;2.43;;
2538;SDS011;1280;49.760;9.664;2024-03-25T11:27:50;9.60;;;2.70;;
2538;SDS011;1280;49.760;9.664;2024-03-25T11:30:21;7.80;;;2.83;;
2538;SDS011;1280;49.760;9.664;2024-03-25T11:32:51;9.57;;;2.97;;
2538;SDS011;1280;49.760;9.664;2024-03-25T11:35:23;7.53;;;2.60;;
2538;SDS011;1280;49.760;9.664;2024-03-25T11:38:02;18.00;;;6.30;;
2538;SDS011;1280;49.760;9.664;2024-03-25T11:40:29;7.13;;;3.03;;
2538;SDS011;1280;49.760;9.664;2024-03-25T11:42:58;6.87;;;2.50;;
2538;SDS011;1280;49.760;9.664;2024-03-25T11:45:35;12.60;;;2.30;;
2538;SDS011;1280;49.760;9.664;2024-03-25T11:48:03;9.63;;;1.90;;
2538;SDS011;1280;49.760;9.664;2024-03-25T11:50:36;12.43;;;2.53;;
2538;SDS011;1280;49.760;9.664;2024-03-25T11:53:09;7.97;;;1.97;;
2538;SDS011;1280;49.760;9.664;2024-03-25T11:55:38;8.50;;;2.20;;
2538;SDS011;1280;49.760;9.664;2024-03-25T11:58:07;8.87;;;3.03;;
2538;SDS011;1280;49.760;9.664;2024-03-25T12:00:33;8.50;;;2.47;;
2538;SDS011;1280;49.760;9.664;2024-03-25T12:03:00;11.40;;;2.60;;
2538;SDS011;1280;49.760;9.664;2024-03-25T12:05:27;9.10;;;2.30;;
2538;SDS011;1280;49.760;9.664;2024-03-25T12:07:54;10.33;;;2.17;;
2538;SDS011;1280;49.760;9.664;2024-03-25T12:10:27;11.03;;;2.57;;
2538;SDS011;1280;49.760;9.664;2024-03-25T12:13:17;10.53;;;2.40;;
2538;SDS011;1280;49.760;9.664;2024-03-25T12:15:49;10.07;;;2.10;;
2538;SDS011;1280;49.760;9.664;2024-03-25T12:18:16;6.70;;;2.10;;
2538;SDS011;1280;49.760;9.664;2024-03-25T12:20:45;8.70;;;2.10;;
2538;SDS011;1280;49.760;9.664;2024-03-25T12:23:15;7.47;;;2.47;;
2538;SDS011;1280;49.760;9.664;2024-03-25T12:25:52;7.20;;;2.40;;
2538;SDS011;1280;49.760;9.664;2024-03-25T12:28:23;7.87;;;2.07;;
2538;SDS011;1280;49.760;9.664;2024-03-25T12:30:52;6.77;;;2.20;;
2538;SDS011;1280;49.760;9.664;2024-03-25T12:33:20;8.23;;;2.47;;
2538;SDS011;1280;49.760;9.664;2024-03-25T12:35:50;9.33;;;2.20;;
2538;SDS011;1280;49.760;9.664;2024-03-25T12:38:22;9.43;;;2.60;;
2538;SDS011;1280;49.760;9.664;2024-03-25T12:41:03;8.83;;;2.30;;
2538;SDS011;1280;49.760;9.664;2024-03-25T12:43:31;10.63;;;2.53;;
2538;SDS011;1280;49.760;9.664;2024-03-25T12:46:02;9.70;;;2.50;;
2538;SDS011;1280;49.760;9.664;2024-03-25T12:48:30;8.20;;;2.17;;
2538;SDS011;1280;49.760;9.664;2024-03-25T12:51:01;6.67;;;1.80;;
2538;SDS011;1280;49.760;9.664;2024-03-25T12:53:34;7.43;;;1.63;;
2538;SDS011;1280;49.760;9.664;2024-03-25T12:56:05;8.20;;;1.83;;
2538;SDS011;1280;49.760;9.664;2024-03-25T12:58:34;7.93;;;2.07;;
2538;SDS011;1280;49.760;9.664;2024-03-25T13:01:04;8.50;;;2.10;;
2538;SDS011;1280;49.760;9.664;2024-03-25T13:03:32;7.83;;;2.47;;
2538;SDS011;1280;49.760;9.664;2024-03-25T13:06:02;7.67;;;2.07;;
2538;SDS011;1280;49.760;9.664;2024-03-25T13:08:29;5.60;;;1.83;;
2538;SDS011;1280;49.760;9.664;2024-03-25T13:10:56;7.03;;;1.80;;
2538;SDS011;1280;49.760;9.664;2024-03-25T13:13:27;9.30;;;2.63;;
2538;SDS011;1280;49.760;9.664;2024-03-25T13:15:57;6.67;;;1.80;;
2538;SDS011;1280;49.760;9.664;2024-03-25T13:18:27;7.33;;;2.23;;
2538;SDS011;1280;49.760;9.664;2024-03-25T13:20:58;8.20;;;2.37;;
2538;SDS011;1280;49.760;9.664;2024-03-25T13:23:27;5.40;;;2.17;;
2538;SDS011;1280;49.760;9.664;2024-03-25T13:26:00;9.63;;;2.33;;
2538;SDS011;1280;49.760;9.664;2024-03-25T13:28:29;6.93;;;1.80;;
2538;SDS011;1280;49.760;9.664;2024-03-25T13:31:23;9.93;;;2.50;;
2538;SDS011;1280;49.760;9.664;2024-03-25T13:33:53;12.83;;;5.47;;
2538;SDS011;1280;49.760;9.664;2024-03-25T13:36:24;7.47;;;2.40;;
2538;SDS011;1280;49.760;9.664;2024-03-25T13:38:51;8.63;;;2.43;;
2538;SDS011;1280;49.760;9.664;2024-03-25T13:41:23;6.70;;;2.20;;
2538;SDS011;1280;49.760;9.664;2024-03-25T13:43:54;7.40;;;2.67;;
2538;SDS011;1280;49.760;9.664;2024-03-25T13:46:20;8.13;;;2.13;;
2538;SDS011;1280;49.760;9.664;2024-03-25T13:48:48;5.93;;;2.07;;
2538;SDS011;1280;49.760;9.664;2024-03-25T13:51:19;9.00;;;2.40;;
2538;SDS011;1280;49.760;9.664;2024-03-25T13:53:49;6.33;;;1.70;;
2538;SDS011;1280;49.760;9.664;2024-03-25T13:56:17;7.70;;;1.80;;
2538;SDS011;1280;49.760;9.664;2024-03-25T13:58:55;6.10;;;1.73;;
2538;SDS011;1280;49.760;9.664;2024-03-25T14:01:22;5.80;;;2.17;;
2538;SDS011;1280;49.760;9.664;2024-03-25T14:03:56;8.27;;;1.83;;
2538;SDS011;1280;49.760;9.664;2024-03-25T14:06:23;6.53;;;1.97;;
2538;SDS011;1280;49.760;9.664;2024-03-25T14:08:50;6.40;;;2.00;;
2538;SDS011;1280;49.760;9.664;2024-03-25T14:11:21;7.50;;;2.80;;
2538;SDS011;1280;49.760;9.664;2024-03-25T14:14:02;12.17;;;3.57;;
2538;SDS011;1280;49.760;9.664;2024-03-25T14:16:31;11.00;;;3.07;;
2538;SDS011;1280;49.760;9.664;2024-03-25T14:19:03;11.03;;;3.10;;
2538;SDS011;1280;49.760;9.664;2024-03-25T14:21:34;8.27;;;2.80;;
2538;SDS011;1280;49.760;9.664;2024-03-25T14:24:04;10.50;;;2.70;;
2538;SDS011;1280;49.760;9.664;2024-03-25T14:26:37;6.73;;;2.90;;
2538;SDS011;1280;49.760;9.664;2024-03-25T14:29:10;5.80;;;2.20;;
2538;SDS011;1280;49.760;9.664;2024-03-25T14:31:38;8.80;;;2.60;;
2538;SDS011;1280;49.760;9.664;2024-03-25T14:34:04;8.60;;;3.20;;
2538;SDS011;1280;49.760;9.664;2024-03-25T14:36:36;6.93;;;2.57;;
2538;SDS011;1280;49.760;9.664;2024-03-25T14:39:07;10.77;;;2.90;;
2538;SDS011;1280;49.760;9.664;2024-03-25T14:41:59;5.00;;;2.10;;
2538;SDS011;1280;49.760;9.664;2024-03-25T14:44:34;8.30;;;2.53;;
2538;SDS011;1280;49.760;9.664;2024-03-25T14:47:04;8.90;;;2.50;;
2538;SDS011;1280;49.760;9.664;2024-03-25T14:49:35;7.33;;;1.90;;
2538;SDS011;1280;49.760;9.664;2024-03-25T14:52:04;8.53;;;2.30;;
2538;SDS011;1280;49.760;9.664;2024-03-25T14:54:37;7.10;;;2.03;;
2538;SDS011;1280;49.760;9.664;2024-03-25T14:57:05;6.10;;;2.47;;
2538;SDS011;1280;49.760;9.664;2024-03-25T14:59:50;7.90;;;2.60;;
2538;SDS011;1280;49.760;9.664;2024-03-25T15:02:18;12.70;;;3.00;;
2538;SDS011;1280;49.760;9.664;2024-03-25T15:04:48;8.40;;;3.10;;
2538;SDS011;1280;49.760;9.664;2024-03-25T15:07:16;4.87;;;2.10;;
2538;SDS011;1280;49.760;9.664;2024-03-25T15:09:45;9.90;;;2.60;;
2538;SDS011;1280;49.760;9.664;2024-03-25T15:12:15;7.93;;;2.30;;
2538;SDS011;1280;49.760;9.664;2024-03-25T15:14:51;7.17;;;2.63;;
2538;SDS011;1280;49.760;9.664;2024-03-25T15:17:21;6.80;;;2.30;;
2538;SDS011;1280;49.760;9.664;2024-03-25T15:19:48;5.50;;;2.17;;
2538;SDS011;1280;49.760;9.664;2024-03-25T15:22:18;7.47;;;2.50;;
2538;SDS011;1280;49.760;9.664;2024-03-25T15:24:47;7.53;;;2.60;;
2538;SDS011;1280;49.760;9.664;2024-03-25T15:27:16;6.57;;;2.47;;
2538;SDS011;1280;49.760;9.664;2024-03-25T15:29:46;5.97;;;2.33;;
2538;SDS011;1280;49.760;9.664;2024-03-25T15:32:18;7.47;;;2.17;;
2538;SDS011;1280;49.760;9.664;2024-03-25T15:34:56;8.83;;;2.83;;
2538;SDS011;1280;49.760;9.664;2024-03-25T15:37:27;7.17;;;3.03;;